Min Zidell — WDJ3750 — position and weather

sailwx.info

Track history (hours):
 
Tides and Currents Weather Stations Pressure Air Temp Water Temp Dewpoint Dewpoint Depression Visibility Wind Speed Wind Dir Waves Ship Positions

Min Zidell

Owner: Harley Marine Services, Inc., seattle, WA. More information available from US FCC via Universal Licensing System and Coast Guard Vessel Documentation Center.

Last reported at 2017-Oct-18 17:54 UTC. Time now 2017-Oct-19 02:19 UTC.
Position N 48°50' W 122°43'.

Length 38 m; draft 4.2 m.

Type: Other ship. MMSI: 367770990.

Date/timePositionNaut miles runAvg speedWind from/ knotsBaromVisibWave heightAir tempDewpointWater temp
2017-Oct-18 17:54N 48°50' W 122°43'0 0.0
2017-Oct-18 17:22N 48°50' W 122°43'0 0.0
2017-Oct-18 16:58N 48°50' W 122°43'0 0.0
2017-Oct-18 15:42N 48°50' W 122°43'0 0.0
2017-Oct-18 15:29N 48°50' W 122°43'0 0.9
2017-Oct-18 14:58N 48°49' W 122°44'7 7.3
2017-Oct-18 14:00N 48°42' W 122°43'5 9.7
2017-Oct-18 13:30N 48°39' W 122°38'5 9.7
2017-Oct-18 13:00N 48°36' W 122°32'0 0.7
2017-Oct-18 12:30N 48°36' W 122°32'0 0.0
2017-Oct-18 11:59N 48°36' W 122°32'0 0.0
2017-Oct-18 11:29N 48°36' W 122°32'0 0.0
2017-Oct-18 10:59N 48°36' W 122°32'0 0.0
2017-Oct-18 10:26N 48°36' W 122°32'0 0.1
2017-Oct-18 09:44N 48°36' W 122°32'0 0.0
2017-Oct-18 09:20N 48°36' W 122°32'0 0.0
2017-Oct-18 08:53N 48°36' W 122°32'0 0.0
2017-Oct-18 08:14N 48°36' W 122°32'0 0.0
2017-Oct-18 07:53N 48°36' W 122°32'0 0.0
2017-Oct-18 07:29N 48°36' W 122°32'0 0.0
2017-Oct-18 06:53N 48°36' W 122°32'0 0.1
2017-Oct-18 06:29N 48°36' W 122°32'0 0.0
2017-Oct-18 05:59N 48°36' W 122°32'0 0.0
2017-Oct-18 05:11N 48°36' W 122°32'0 0.0
2017-Oct-18 04:53N 48°36' W 122°32'0 0.0
2017-Oct-18 04:29N 48°36' W 122°32'0 0.0
2017-Oct-18 03:53N 48°36' W 122°32'0 0.2
2017-Oct-18 02:41N 48°35' W 122°31'0 0.0
2017-Oct-18 00:11N 48°36' W 122°31'0 0.0
2017-Oct-17 23:05N 48°36' W 122°31'0 0.1
2017-Oct-17 22:41N 48°36' W 122°31'0 0.0
2017-Oct-17 19:39N 48°36' W 122°31'0 0.2
2017-Oct-17 19:23N 48°36' W 122°31'0 0.1
2017-Oct-17 19:00N 48°36' W 122°31'0 0.0
2017-Oct-17 18:27N 48°36' W 122°31'0 0.0
2017-Oct-17 17:53N 48°36' W 122°31'0 0.4
2017-Oct-17 17:29N 48°36' W 122°32'3 5.5
2017-Oct-17 16:58N 48°37' W 122°35'4 9.4
2017-Oct-17 16:30N 48°39' W 122°41'510.0
2017-Oct-17 16:00N 48°43' W 122°45'6 8.8
2017-Oct-17 15:19N 48°49' W 122°44'0 0.1
2017-Oct-17 10:46N 48°50' W 122°43'0 0.0
2017-Oct-17 10:28N 48°50' W 122°43'0 0.0
2017-Oct-17 05:09N 48°50' W 122°43'0 0.0
2017-Oct-17 04:10N 48°50' W 122°43'0 0.0
2017-Oct-17 03:57N 48°50' W 122°43'0 0.0
2017-Oct-17 02:22N 48°50' W 122°43'0 0.0
2017-Oct-17 01:49N 48°50' W 122°43'0 0.0
2017-Oct-17 01:22N 48°50' W 122°43'0 0.0
2017-Oct-17 00:57N 48°50' W 122°43'0 0.0
2017-Oct-17 00:16N 48°50' W 122°43'0 0.0
2017-Oct-17 00:00N 48°50' W 122°43'0 0.3
2017-Oct-16 23:31N 48°49' W 122°43'0 0.2
2017-Oct-16 22:24N 48°50' W 122°43'0 0.0
2017-Oct-16 21:54N 48°50' W 122°43'0 0.0
2017-Oct-16 21:30N 48°50' W 122°43'0 0.8
2017-Oct-16 20:59N 48°49' W 122°44'5 9.4
2017-Oct-16 20:28N 48°45' W 122°45'511.5
2017-Oct-16 20:00N 48°40' W 122°41'5 9.8
2017-Oct-16 19:30N 48°37' W 122°35'3 4.9
2017-Oct-16 18:58N 48°35' W 122°32'0 0.1
2017-Oct-16 18:26N 48°35' W 122°32'0 0.0
2017-Oct-16 17:56N 48°35' W 122°32'0 0.0
2017-Oct-16 16:14N 48°35' W 122°32'0 0.1
2017-Oct-16 15:50N 48°35' W 122°32'0 0.2
2017-Oct-16 15:29N 48°35' W 122°32'0 0.0
2017-Oct-16 14:11N 48°35' W 122°32'0 0.0
2017-Oct-16 11:35N 48°35' W 122°32'0 0.0
2017-Oct-16 05:14N 48°35' W 122°32'0 0.0
2017-Oct-16 04:56N 48°35' W 122°32'0 0.0
2017-Oct-16 04:29N 48°35' W 122°32'0 0.1
2017-Oct-16 02:38N 48°35' W 122°32'0 0.0
2017-Oct-16 02:29N 48°35' W 122°32'0 0.1
2017-Oct-16 01:35N 48°35' W 122°32'0 0.2
2017-Oct-16 01:23N 48°35' W 122°32'0 0.0
2017-Oct-16 00:53N 48°35' W 122°32'0 0.0
2017-Oct-16 00:14N 48°35' W 122°32'0 0.0
2017-Oct-15 23:59N 48°35' W 122°32'0 0.0
2017-Oct-15 23:29N 48°35' W 122°32'0 0.0
2017-Oct-15 22:50N 48°35' W 122°32'0 0.0
2017-Oct-15 22:20N 48°35' W 122°32'0 0.0
2017-Oct-15 21:59N 48°35' W 122°32'0 0.0
2017-Oct-15 17:11N 48°35' W 122°32'0 0.1
2017-Oct-15 16:53N 48°35' W 122°32'0 0.1
2017-Oct-15 16:29N 48°35' W 122°32'0 0.1
2017-Oct-15 15:50N 48°35' W 122°32'0 0.0
2017-Oct-15 15:29N 48°35' W 122°32'0 0.0
2017-Oct-15 14:44N 48°35' W 122°32'0 0.0
2017-Oct-15 12:38N 48°35' W 122°32'0 0.0
2017-Oct-15 12:23N 48°35' W 122°32'0 0.0
2017-Oct-15 11:59N 48°35' W 122°32'0 0.0
2017-Oct-15 11:29N 48°35' W 122°32'0 0.0
2017-Oct-15 10:02N 48°35' W 122°32'0 0.0
2017-Oct-15 09:44N 48°35' W 122°32'0 0.1
2017-Oct-15 09:23N 48°35' W 122°32'0 0.0
2017-Oct-15 08:53N 48°35' W 122°32'0 0.0
2017-Oct-15 08:23N 48°35' W 122°32'0 0.0
2017-Oct-15 07:59N 48°35' W 122°32'0 0.0
2017-Oct-15 07:29N 48°35' W 122°32'0 0.0
2017-Oct-15 06:47N 48°35' W 122°32'0 0.0
2017-Oct-15 06:29N 48°35' W 122°32'0 0.0
2017-Oct-15 05:53N 48°35' W 122°32'0 0.0
2017-Oct-15 05:29N 48°35' W 122°32'0 0.0
2017-Oct-15 04:38N 48°35' W 122°32'0 0.3
2017-Oct-15 04:29N 48°35' W 122°32'0 0.2
2017-Oct-15 03:47N 48°35' W 122°32'0 0.0
2017-Oct-15 03:29N 48°35' W 122°32'0 0.0
2017-Oct-15 02:59N 48°35' W 122°32'0 0.0
2017-Oct-15 01:17N 48°35' W 122°32'0 0.0
2017-Oct-15 00:53N 48°35' W 122°32'0 0.0
2017-Oct-15 00:11N 48°35' W 122°32'0 0.1
2017-Oct-14 23:44N 48°35' W 122°32'0 0.0
2017-Oct-14 23:20N 48°35' W 122°32'0 0.1
2017-Oct-14 22:56N 48°35' W 122°32'0 0.0
2017-Oct-14 20:17N 48°35' W 122°32'0 0.0
2017-Oct-14 18:53N 48°35' W 122°32'0 0.1
2017-Oct-14 17:23N 48°35' W 122°32'0 0.0
2017-Oct-14 16:59N 48°35' W 122°32'0 0.1
2017-Oct-14 16:29N 48°35' W 122°32'0 0.0
2017-Oct-14 15:56N 48°35' W 122°32'0 0.0
2017-Oct-14 14:14N 48°35' W 122°32'0 0.0
2017-Oct-14 13:53N 48°35' W 122°32'0 0.0
2017-Oct-14 13:14N 48°35' W 122°32'0 0.0
2017-Oct-14 12:59N 48°35' W 122°32'0 0.0
2017-Oct-14 12:23N 48°35' W 122°32'0 0.0
2017-Oct-14 11:56N 48°35' W 122°32'0 0.0
2017-Oct-14 11:17N 48°35' W 122°32'0 0.1
2017-Oct-14 10:59N 48°35' W 122°32'0 0.0
2017-Oct-14 09:08N 48°35' W 122°32'0 0.0
2017-Oct-14 08:35N 48°35' W 122°32'0 0.1
2017-Oct-14 08:08N 48°35' W 122°32'0 0.2
2017-Oct-14 07:53N 48°35' W 122°32'0 0.1
2017-Oct-14 07:11N 48°35' W 122°32'0 0.0
2017-Oct-14 06:17N 48°35' W 122°32'0 0.0
2017-Oct-14 05:59N 48°35' W 122°32'0 0.0
2017-Oct-14 05:26N 48°35' W 122°32'0 0.0
2017-Oct-14 04:59N 48°35' W 122°32'0 0.0
2017-Oct-14 03:32N 48°35' W 122°32'0 0.1
2017-Oct-14 03:20N 48°35' W 122°32'0 0.1
2017-Oct-14 02:38N 48°35' W 122°32'0 0.1
2017-Oct-14 02:17N 48°35' W 122°32'0 0.0
2017-Oct-13 23:23N 48°35' W 122°32'0 0.0
2017-Oct-13 22:26N 48°35' W 122°32'0 0.1
2017-Oct-13 21:05N 48°35' W 122°32'0 0.0
2017-Oct-13 20:47N 48°35' W 122°32'0 0.0
2017-Oct-13 20:20N 48°35' W 122°32'0 0.1
2017-Oct-13 19:53N 48°35' W 122°32'0 0.0
2017-Oct-13 19:23N 48°35' W 122°32'0 0.1
2017-Oct-13 18:56N 48°35' W 122°32'0 0.0
2017-Oct-13 18:29N 48°35' W 122°32'0 0.1
2017-Oct-13 17:56N 48°35' W 122°32'0 0.0
2017-Oct-13 16:20N 48°35' W 122°32'0 0.0
2017-Oct-13 15:59N 48°35' W 122°32'0 0.0
2017-Oct-13 15:29N 48°35' W 122°32'0 0.0
2017-Oct-13 14:47N 48°35' W 122°32'0 0.1
2017-Oct-13 14:23N 48°35' W 122°32'0 0.0
2017-Oct-13 13:23N 48°35' W 122°32'0 0.0
2017-Oct-13 11:41N 48°35' W 122°32'0 0.1
2017-Oct-13 11:08N 48°35' W 122°32'0 0.0
2017-Oct-13 10:44N 48°35' W 122°32'0 0.0
2017-Oct-13 10:29N 48°35' W 122°32'0 0.1
2017-Oct-13 09:47N 48°35' W 122°32'0 0.1
2017-Oct-13 09:20N 48°35' W 122°32'0 0.0
2017-Oct-13 08:35N 48°35' W 122°32'0 0.0
2017-Oct-13 08:20N 48°35' W 122°32'0 0.0
2017-Oct-13 07:53N 48°35' W 122°32'0 0.0
2017-Oct-13 07:23N 48°35' W 122°32'0 0.0
2017-Oct-13 06:59N 48°35' W 122°32'0 0.0
2017-Oct-13 06:26N 48°35' W 122°32'0 0.0
2017-Oct-13 05:56N 48°35' W 122°32'0 0.0
2017-Oct-13 05:29N 48°35' W 122°32'0 0.0
2017-Oct-13 04:41N 48°35' W 122°32'0 0.0
2017-Oct-13 03:23N 48°35' W 122°32'0 0.0
2017-Oct-13 02:59N 48°35' W 122°32'0 0.1
2017-Oct-13 02:29N 48°35' W 122°32'0 0.0
2017-Oct-13 01:53N 48°35' W 122°32'0 0.0
2017-Oct-13 00:53N 48°35' W 122°32'0 0.0
2017-Oct-13 00:29N 48°35' W 122°32'0 0.0
2017-Oct-12 23:44N 48°35' W 122°32'0 0.0
2017-Oct-12 23:29N 48°35' W 122°32'0 0.0
2017-Oct-12 22:59N 48°35' W 122°32'0 0.0
2017-Oct-12 22:26N 48°35' W 122°32'0 0.0
2017-Oct-12 21:50N 48°35' W 122°32'0 0.1
2017-Oct-12 21:23N 48°35' W 122°32'0 0.0
2017-Oct-12 20:08N 48°35' W 122°32'0 0.0
2017-Oct-12 19:28N 48°35' W 122°32'1 1.6
2017-Oct-12 19:00N 48°36' W 122°33'3 6.7
2017-Oct-12 18:31N 48°37' W 122°37'5 9.9
2017-Oct-12 18:00N 48°33' W 122°40'611.8
2017-Oct-12 17:30N 48°27' W 122°44'511.0
2017-Oct-12 17:00N 48°23' W 122°50'510.8
2017-Oct-12 16:30N 48°20' W 122°57'810.4
2017-Oct-12 15:45N 48°16' W 123°06'210.3
2017-Oct-12 15:30N 48°15' W 123°10'510.0
2017-Oct-12 14:58N 48°12' W 123°17'510.9
2017-Oct-12 14:30N 48°12' W 123°24'510.1
2017-Oct-12 14:00N 48°12' W 123°32'5 9.3
2017-Oct-12 13:29N 48°12' W 123°39'5 8.9
2017-Oct-12 12:59N 48°12' W 123°46'7 9.4
2017-Oct-12 12:14N 48°13' W 123°56'2 9.5
2017-Oct-12 11:59N 48°14' W 123°60'5 9.7
2017-Oct-12 11:30N 48°16' W 124°06'5 9.2
2017-Oct-12 11:00N 48°18' W 124°12'4 8.7
2017-Oct-12 10:30N 48°19' W 124°18'4 8.0
2017-Oct-12 10:00N 48°21' W 124°24'4 7.8
2017-Oct-12 09:30N 48°23' W 124°29'4 7.2
2017-Oct-12 09:00N 48°25' W 124°34'4 7.2
2017-Oct-12 08:29N 48°26' W 124°39'3 7.0
2017-Oct-12 08:00N 48°27' W 124°44'4 7.0
2017-Oct-12 07:29N 48°27' W 124°49'3 7.2
2017-Oct-12 07:00N 48°27' W 124°54'4 7.9
2017-Oct-12 06:30N 48°24' W 124°58'6 9.0
2017-Oct-12 05:53N 48°19' W 125°02'85 6.7
2017-Oct-11 17:13N 46°55' W 125°02'1 6.7
2017-Oct-11 16:59N 46°53' W 125°01'108 6.4
2017-Oct-11 00:00N 45°56' W 122°48'510.9
2017-Oct-10 23:30N 45°51' W 122°47'510.9
2017-Oct-10 23:00N 45°45' W 122°46'611.3
2017-Oct-10 22:30N 45°40' W 122°46'3 6.7
2017-Oct-10 22:00N 45°36' W 122°47'3 6.0
2017-Oct-10 21:31N 45°34' W 122°44'0 0.2
2017-Oct-10 21:00N 45°34' W 122°44'0 0.0
2017-Oct-10 20:30N 45°34' W 122°44'0 0.0
2017-Oct-10 20:00N 45°34' W 122°44'0 0.0
2017-Oct-10 19:22N 45°34' W 122°44'0 0.0
2017-Oct-10 18:58N 45°34' W 122°44'0 0.0
2017-Oct-10 18:28N 45°34' W 122°44'0 0.0
2017-Oct-10 17:58N 45°34' W 122°44'0 0.0
2017-Oct-10 17:22N 45°34' W 122°44'0 0.0
2017-Oct-10 16:58N 45°34' W 122°44'0 0.0
2017-Oct-10 16:28N 45°34' W 122°44'0 0.0
2017-Oct-10 15:58N 45°34' W 122°44'0 0.0
2017-Oct-10 15:28N 45°34' W 122°44'0 0.0
2017-Oct-10 14:55N 45°34' W 122°44'0 0.0
2017-Oct-10 13:58N 45°34' W 122°44'0 0.0
2017-Oct-10 13:28N 45°34' W 122°44'0 0.0
2017-Oct-10 12:13N 45°34' W 122°44'0 0.0
2017-Oct-10 11:58N 45°34' W 122°44'0 0.0
2017-Oct-10 11:25N 45°34' W 122°44'0 0.0
2017-Oct-10 10:49N 45°34' W 122°44'0 0.0
2017-Oct-10 10:28N 45°34' W 122°44'0 0.0
2017-Oct-10 09:58N 45°34' W 122°44'0 0.0
2017-Oct-10 09:16N 45°34' W 122°44'0 0.0
2017-Oct-10 08:40N 45°34' W 122°44'0 0.0
2017-Oct-10 08:19N 45°34' W 122°44'0 0.0
2017-Oct-10 07:58N 45°34' W 122°44'0 0.0
2017-Oct-10 07:22N 45°34' W 122°44'0 0.0
2017-Oct-10 06:58N 45°34' W 122°44'0 0.0
2017-Oct-10 06:28N 45°34' W 122°44'0 0.0
2017-Oct-10 05:55N 45°34' W 122°44'0 0.0
2017-Oct-10 05:19N 45°34' W 122°44'0 0.0
2017-Oct-10 05:00N 45°34' W 122°44'1 1.5
2017-Oct-10 04:30N 45°35' W 122°45'2 3.7
2017-Oct-10 03:51N 45°36' W 122°47'2 4.9
2017-Oct-10 03:30N 45°38' W 122°47'4 6.7
2017-Oct-10 02:57N 45°42' W 122°46'4 8.3
2017-Oct-10 02:30N 45°45' W 122°46'4 8.7
2017-Oct-10 02:00N 45°50' W 122°48'8 9.4
2017-Oct-10 01:11N 45°57' W 122°49'210.2
2017-Oct-10 01:00N 45°59' W 122°50'5 9.8
2017-Oct-10 00:30N 46°03' W 122°53'5 9.5
2017-Oct-10 00:00N 46°06' W 122°58'510.0
2017-Oct-09 23:30N 46°09' W 123°04'5 9.6
2017-Oct-09 23:00N 46°11' W 123°10'510.3
2017-Oct-09 22:30N 46°09' W 123°17'5 9.5
2017-Oct-09 22:01N 46°09' W 123°24'4 7.2
2017-Oct-09 21:31N 46°12' W 123°26'3 5.8
2017-Oct-09 21:01N 46°15' W 123°27'4 8.5
2017-Oct-09 20:30N 46°15' W 123°33'5 9.8
2017-Oct-09 20:01N 46°15' W 123°40'510.0
2017-Oct-09 19:31N 46°13' W 123°47'5 9.4
2017-Oct-09 19:00N 46°11' W 123°53'4 8.5
2017-Oct-09 18:31N 46°14' W 123°58'4 8.3
2017-Oct-09 18:01N 46°15' W 124°04'4 7.8
2017-Oct-09 17:30N 46°13' W 124°08'4 8.1
2017-Oct-09 17:01N 46°11' W 124°13'2 4.4
2017-Oct-09 16:30N 46°10' W 124°16'1 2.5
2017-Oct-09 16:00N 46°09' W 124°18'1 2.8
2017-Oct-09 15:31N 46°08' W 124°19'2 3.2
2017-Oct-09 15:00N 46°07' W 124°21'2 3.4
2017-Oct-09 14:30N 46°07' W 124°23'2 3.8
2017-Oct-09 14:01N 46°06' W 124°26'2 4.7
2017-Oct-09 13:31N 46°05' W 124°29'2 4.4
2017-Oct-09 13:01N 46°04' W 124°32'2 4.4
2017-Oct-09 12:30N 46°03' W 124°35'2 4.5
2017-Oct-09 12:01N 46°02' W 124°38'2 4.5
2017-Oct-09 11:30N 46°01' W 124°40'2 4.4
2017-Oct-09 10:59N 46°00' W 124°43'4 5.3
2017-Oct-09 10:13N 45°58' W 124°48'1 5.5
2017-Oct-09 10:01N 45°58' W 124°50'4 8.1
2017-Oct-09 09:30N 45°56' W 124°55'1 2.3
2017-Oct-09 09:00N 45°55' W 124°57'3 5.5
2017-Oct-09 08:31N 45°54' W 125°00'3 5.1
2017-Oct-09 08:00N 45°51' W 125°00'3 5.2
2017-Oct-09 07:30N 45°49' W 125°00'3 5.0
2017-Oct-09 07:00N 45°46' W 125°01'2 5.0
2017-Oct-09 06:30N 45°44' W 125°01'3 4.9
2017-Oct-09 05:58N 45°41' W 125°02'2 4.9
2017-Oct-09 05:30N 45°39' W 125°02'3 5.2
2017-Oct-09 05:00N 45°36' W 125°02'3 5.2
2017-Oct-09 04:23N 45°33' W 125°02'2 5.2
2017-Oct-09 04:00N 45°31' W 125°03'2 5.0
2017-Oct-09 03:31N 45°28' W 125°03'3 5.0
2017-Oct-09 02:59N 45°26' W 125°03'4 5.4
2017-Oct-09 02:19N 45°22' W 125°04'  
Track history (hours):
 
Tides and Currents Weather Stations Pressure Air Temp Water Temp Dewpoint Dewpoint Depression Visibility Wind Speed Wind Dir Waves Ship Positions

Min Zidell

Owner: Harley Marine Services, Inc., seattle, WA. More information available from US FCC via Universal Licensing System and Coast Guard Vessel Documentation Center.

Last reported at 2017-Oct-18 17:54 UTC. Time now 2017-Oct-19 02:19 UTC.
Position N 48°50' W 122°43'.

Length 38 m; draft 4.2 m.

Type: Other ship. MMSI: 367770990.

Date/timePositionNaut miles runAvg speedWind from/ knotsBaromVisibWave heightAir tempDewpointWater temp
2017-Oct-18 17:54N 48°50' W 122°43'0 0.0
2017-Oct-18 17:22N 48°50' W 122°43'0 0.0
2017-Oct-18 16:58N 48°50' W 122°43'0 0.0
2017-Oct-18 15:42N 48°50' W 122°43'0 0.0
2017-Oct-18 15:29N 48°50' W 122°43'0 0.9
2017-Oct-18 14:58N 48°49' W 122°44'7 7.3
2017-Oct-18 14:00N 48°42' W 122°43'5 9.7
2017-Oct-18 13:30N 48°39' W 122°38'5 9.7
2017-Oct-18 13:00N 48°36' W 122°32'0 0.7
2017-Oct-18 12:30N 48°36' W 122°32'0 0.0
2017-Oct-18 11:59N 48°36' W 122°32'0 0.0
2017-Oct-18 11:29N 48°36' W 122°32'0 0.0
2017-Oct-18 10:59N 48°36' W 122°32'0 0.0
2017-Oct-18 10:26N 48°36' W 122°32'0 0.1
2017-Oct-18 09:44N 48°36' W 122°32'0 0.0
2017-Oct-18 09:20N 48°36' W 122°32'0 0.0
2017-Oct-18 08:53N 48°36' W 122°32'0 0.0
2017-Oct-18 08:14N 48°36' W 122°32'0 0.0
2017-Oct-18 07:53N 48°36' W 122°32'0 0.0
2017-Oct-18 07:29N 48°36' W 122°32'0 0.0
2017-Oct-18 06:53N 48°36' W 122°32'0 0.1
2017-Oct-18 06:29N 48°36' W 122°32'0 0.0
2017-Oct-18 05:59N 48°36' W 122°32'0 0.0
2017-Oct-18 05:11N 48°36' W 122°32'0 0.0
2017-Oct-18 04:53N 48°36' W 122°32'0 0.0
2017-Oct-18 04:29N 48°36' W 122°32'0 0.0
2017-Oct-18 03:53N 48°36' W 122°32'0 0.2
2017-Oct-18 02:41N 48°35' W 122°31'0 0.0
2017-Oct-18 00:11N 48°36' W 122°31'0 0.0
2017-Oct-17 23:05N 48°36' W 122°31'0 0.1
2017-Oct-17 22:41N 48°36' W 122°31'0 0.0
2017-Oct-17 19:39N 48°36' W 122°31'0 0.2
2017-Oct-17 19:23N 48°36' W 122°31'0 0.1
2017-Oct-17 19:00N 48°36' W 122°31'0 0.0
2017-Oct-17 18:27N 48°36' W 122°31'0 0.0
2017-Oct-17 17:53N 48°36' W 122°31'0 0.4
2017-Oct-17 17:29N 48°36' W 122°32'3 5.5
2017-Oct-17 16:58N 48°37' W 122°35'4 9.4
2017-Oct-17 16:30N 48°39' W 122°41'510.0
2017-Oct-17 16:00N 48°43' W 122°45'6 8.8
2017-Oct-17 15:19N 48°49' W 122°44'0 0.1
2017-Oct-17 10:46N 48°50' W 122°43'0 0.0
2017-Oct-17 10:28N 48°50' W 122°43'0 0.0
2017-Oct-17 05:09N 48°50' W 122°43'0 0.0
2017-Oct-17 04:10N 48°50' W 122°43'0 0.0
2017-Oct-17 03:57N 48°50' W 122°43'0 0.0
2017-Oct-17 02:22N 48°50' W 122°43'0 0.0
2017-Oct-17 01:49N 48°50' W 122°43'0 0.0
2017-Oct-17 01:22N 48°50' W 122°43'0 0.0
2017-Oct-17 00:57N 48°50' W 122°43'0 0.0
2017-Oct-17 00:16N 48°50' W 122°43'0 0.0
2017-Oct-17 00:00N 48°50' W 122°43'0 0.3
2017-Oct-16 23:31N 48°49' W 122°43'0 0.2
2017-Oct-16 22:24N 48°50' W 122°43'0 0.0
2017-Oct-16 21:54N 48°50' W 122°43'0 0.0
2017-Oct-16 21:30N 48°50' W 122°43'0 0.8
2017-Oct-16 20:59N 48°49' W 122°44'5 9.4
2017-Oct-16 20:28N 48°45' W 122°45'511.5
2017-Oct-16 20:00N 48°40' W 122°41'5 9.8
2017-Oct-16 19:30N 48°37' W 122°35'3 4.9
2017-Oct-16 18:58N 48°35' W 122°32'0 0.1
2017-Oct-16 18:26N 48°35' W 122°32'0 0.0
2017-Oct-16 17:56N 48°35' W 122°32'0 0.0
2017-Oct-16 16:14N 48°35' W 122°32'0 0.1
2017-Oct-16 15:50N 48°35' W 122°32'0 0.2
2017-Oct-16 15:29N 48°35' W 122°32'0 0.0
2017-Oct-16 14:11N 48°35' W 122°32'0 0.0
2017-Oct-16 11:35N 48°35' W 122°32'0 0.0
2017-Oct-16 05:14N 48°35' W 122°32'0 0.0
2017-Oct-16 04:56N 48°35' W 122°32'0 0.0
2017-Oct-16 04:29N 48°35' W 122°32'0 0.1
2017-Oct-16 02:38N 48°35' W 122°32'0 0.0
2017-Oct-16 02:29N 48°35' W 122°32'0 0.1
2017-Oct-16 01:35N 48°35' W 122°32'0 0.2
2017-Oct-16 01:23N 48°35' W 122°32'0 0.0
2017-Oct-16 00:53N 48°35' W 122°32'0 0.0
2017-Oct-16 00:14N 48°35' W 122°32'0 0.0
2017-Oct-15 23:59N 48°35' W 122°32'0 0.0
2017-Oct-15 23:29N 48°35' W 122°32'0 0.0
2017-Oct-15 22:50N 48°35' W 122°32'0 0.0
2017-Oct-15 22:20N 48°35' W 122°32'0 0.0
2017-Oct-15 21:59N 48°35' W 122°32'0 0.0
2017-Oct-15 17:11N 48°35' W 122°32'0 0.1
2017-Oct-15 16:53N 48°35' W 122°32'0 0.1
2017-Oct-15 16:29N 48°35' W 122°32'0 0.1
2017-Oct-15 15:50N 48°35' W 122°32'0 0.0
2017-Oct-15 15:29N 48°35' W 122°32'0 0.0
2017-Oct-15 14:44N 48°35' W 122°32'0 0.0
2017-Oct-15 12:38N 48°35' W 122°32'0 0.0
2017-Oct-15 12:23N 48°35' W 122°32'0 0.0
2017-Oct-15 11:59N 48°35' W 122°32'0 0.0
2017-Oct-15 11:29N 48°35' W 122°32'0 0.0
2017-Oct-15 10:02N 48°35' W 122°32'0 0.0
2017-Oct-15 09:44N 48°35' W 122°32'0 0.1
2017-Oct-15 09:23N 48°35' W 122°32'0 0.0
2017-Oct-15 08:53N 48°35' W 122°32'0 0.0
2017-Oct-15 08:23N 48°35' W 122°32'0 0.0
2017-Oct-15 07:59N 48°35' W 122°32'0 0.0
2017-Oct-15 07:29N 48°35' W 122°32'0 0.0
2017-Oct-15 06:47N 48°35' W 122°32'0 0.0
2017-Oct-15 06:29N 48°35' W 122°32'0 0.0
2017-Oct-15 05:53N 48°35' W 122°32'0 0.0
2017-Oct-15 05:29N 48°35' W 122°32'0 0.0
2017-Oct-15 04:38N 48°35' W 122°32'0 0.3
2017-Oct-15 04:29N 48°35' W 122°32'0 0.2
2017-Oct-15 03:47N 48°35' W 122°32'0 0.0
2017-Oct-15 03:29N 48°35' W 122°32'0 0.0
2017-Oct-15 02:59N 48°35' W 122°32'0 0.0
2017-Oct-15 01:17N 48°35' W 122°32'0 0.0
2017-Oct-15 00:53N 48°35' W 122°32'0 0.0
2017-Oct-15 00:11N 48°35' W 122°32'0 0.1
2017-Oct-14 23:44N 48°35' W 122°32'0 0.0
2017-Oct-14 23:20N 48°35' W 122°32'0 0.1
2017-Oct-14 22:56N 48°35' W 122°32'0 0.0
2017-Oct-14 20:17N 48°35' W 122°32'0 0.0
2017-Oct-14 18:53N 48°35' W 122°32'0 0.1
2017-Oct-14 17:23N 48°35' W 122°32'0 0.0
2017-Oct-14 16:59N 48°35' W 122°32'0 0.1
2017-Oct-14 16:29N 48°35' W 122°32'0 0.0
2017-Oct-14 15:56N 48°35' W 122°32'0 0.0
2017-Oct-14 14:14N 48°35' W 122°32'0 0.0
2017-Oct-14 13:53N 48°35' W 122°32'0 0.0
2017-Oct-14 13:14N 48°35' W 122°32'0 0.0
2017-Oct-14 12:59N 48°35' W 122°32'0 0.0
2017-Oct-14 12:23N 48°35' W 122°32'0 0.0
2017-Oct-14 11:56N 48°35' W 122°32'0 0.0
2017-Oct-14 11:17N 48°35' W 122°32'0 0.1
2017-Oct-14 10:59N 48°35' W 122°32'0 0.0
2017-Oct-14 09:08N 48°35' W 122°32'0 0.0
2017-Oct-14 08:35N 48°35' W 122°32'0 0.1
2017-Oct-14 08:08N 48°35' W 122°32'0 0.2
2017-Oct-14 07:53N 48°35' W 122°32'0 0.1
2017-Oct-14 07:11N 48°35' W 122°32'0 0.0
2017-Oct-14 06:17N 48°35' W 122°32'0 0.0
2017-Oct-14 05:59N 48°35' W 122°32'0 0.0
2017-Oct-14 05:26N 48°35' W 122°32'0 0.0
2017-Oct-14 04:59N 48°35' W 122°32'0 0.0
2017-Oct-14 03:32N 48°35' W 122°32'0 0.1
2017-Oct-14 03:20N 48°35' W 122°32'0 0.1
2017-Oct-14 02:38N 48°35' W 122°32'0 0.1
2017-Oct-14 02:17N 48°35' W 122°32'0 0.0
2017-Oct-13 23:23N 48°35' W 122°32'0 0.0
2017-Oct-13 22:26N 48°35' W 122°32'0 0.1
2017-Oct-13 21:05N 48°35' W 122°32'0 0.0
2017-Oct-13 20:47N 48°35' W 122°32'0 0.0
2017-Oct-13 20:20N 48°35' W 122°32'0 0.1
2017-Oct-13 19:53N 48°35' W 122°32'0 0.0
2017-Oct-13 19:23N 48°35' W 122°32'0 0.1
2017-Oct-13 18:56N 48°35' W 122°32'0 0.0
2017-Oct-13 18:29N 48°35' W 122°32'0 0.1
2017-Oct-13 17:56N 48°35' W 122°32'0 0.0
2017-Oct-13 16:20N 48°35' W 122°32'0 0.0
2017-Oct-13 15:59N 48°35' W 122°32'0 0.0
2017-Oct-13 15:29N 48°35' W 122°32'0 0.0
2017-Oct-13 14:47N 48°35' W 122°32'0 0.1
2017-Oct-13 14:23N 48°35' W 122°32'0 0.0
2017-Oct-13 13:23N 48°35' W 122°32'0 0.0
2017-Oct-13 11:41N 48°35' W 122°32'0 0.1
2017-Oct-13 11:08N 48°35' W 122°32'0 0.0
2017-Oct-13 10:44N 48°35' W 122°32'0 0.0
2017-Oct-13 10:29N 48°35' W 122°32'0 0.1
2017-Oct-13 09:47N 48°35' W 122°32'0 0.1
2017-Oct-13 09:20N 48°35' W 122°32'0 0.0
2017-Oct-13 08:35N 48°35' W 122°32'0 0.0
2017-Oct-13 08:20N 48°35' W 122°32'0 0.0
2017-Oct-13 07:53N 48°35' W 122°32'0 0.0
2017-Oct-13 07:23N 48°35' W 122°32'0 0.0
2017-Oct-13 06:59N 48°35' W 122°32'0 0.0
2017-Oct-13 06:26N 48°35' W 122°32'0 0.0
2017-Oct-13 05:56N 48°35' W 122°32'0 0.0
2017-Oct-13 05:29N 48°35' W 122°32'0 0.0
2017-Oct-13 04:41N 48°35' W 122°32'0 0.0
2017-Oct-13 03:23N 48°35' W 122°32'0 0.0
2017-Oct-13 02:59N 48°35' W 122°32'0 0.1
2017-Oct-13 02:29N 48°35' W 122°32'0 0.0
2017-Oct-13 01:53N 48°35' W 122°32'0 0.0
2017-Oct-13 00:53N 48°35' W 122°32'0 0.0
2017-Oct-13 00:29N 48°35' W 122°32'0 0.0
2017-Oct-12 23:44N 48°35' W 122°32'0 0.0
2017-Oct-12 23:29N 48°35' W 122°32'0 0.0
2017-Oct-12 22:59N 48°35' W 122°32'0 0.0
2017-Oct-12 22:26N 48°35' W 122°32'0 0.0
2017-Oct-12 21:50N 48°35' W 122°32'0 0.1
2017-Oct-12 21:23N 48°35' W 122°32'0 0.0
2017-Oct-12 20:08N 48°35' W 122°32'0 0.0
2017-Oct-12 19:28N 48°35' W 122°32'1 1.6
2017-Oct-12 19:00N 48°36' W 122°33'3 6.7
2017-Oct-12 18:31N 48°37' W 122°37'5 9.9
2017-Oct-12 18:00N 48°33' W 122°40'611.8
2017-Oct-12 17:30N 48°27' W 122°44'511.0
2017-Oct-12 17:00N 48°23' W 122°50'510.8
2017-Oct-12 16:30N 48°20' W 122°57'810.4
2017-Oct-12 15:45N 48°16' W 123°06'210.3
2017-Oct-12 15:30N 48°15' W 123°10'510.0
2017-Oct-12 14:58N 48°12' W 123°17'510.9
2017-Oct-12 14:30N 48°12' W 123°24'510.1
2017-Oct-12 14:00N 48°12' W 123°32'5 9.3
2017-Oct-12 13:29N 48°12' W 123°39'5 8.9
2017-Oct-12 12:59N 48°12' W 123°46'7 9.4
2017-Oct-12 12:14N 48°13' W 123°56'2 9.5
2017-Oct-12 11:59N 48°14' W 123°60'5 9.7
2017-Oct-12 11:30N 48°16' W 124°06'5 9.2
2017-Oct-12 11:00N 48°18' W 124°12'4 8.7
2017-Oct-12 10:30N 48°19' W 124°18'4 8.0
2017-Oct-12 10:00N 48°21' W 124°24'4 7.8
2017-Oct-12 09:30N 48°23' W 124°29'4 7.2
2017-Oct-12 09:00N 48°25' W 124°34'4 7.2
2017-Oct-12 08:29N 48°26' W 124°39'3 7.0
2017-Oct-12 08:00N 48°27' W 124°44'4 7.0
2017-Oct-12 07:29N 48°27' W 124°49'3 7.2
2017-Oct-12 07:00N 48°27' W 124°54'4 7.9
2017-Oct-12 06:30N 48°24' W 124°58'6 9.0
2017-Oct-12 05:53N 48°19' W 125°02'85 6.7
2017-Oct-11 17:13N 46°55' W 125°02'1 6.7
2017-Oct-11 16:59N 46°53' W 125°01'108 6.4
2017-Oct-11 00:00N 45°56' W 122°48'510.9
2017-Oct-10 23:30N 45°51' W 122°47'510.9
2017-Oct-10 23:00N 45°45' W 122°46'611.3
2017-Oct-10 22:30N 45°40' W 122°46'3 6.7
2017-Oct-10 22:00N 45°36' W 122°47'3 6.0
2017-Oct-10 21:31N 45°34' W 122°44'0 0.2
2017-Oct-10 21:00N 45°34' W 122°44'0 0.0
2017-Oct-10 20:30N 45°34' W 122°44'0 0.0
2017-Oct-10 20:00N 45°34' W 122°44'0 0.0
2017-Oct-10 19:22N 45°34' W 122°44'0 0.0
2017-Oct-10 18:58N 45°34' W 122°44'0 0.0
2017-Oct-10 18:28N 45°34' W 122°44'0 0.0
2017-Oct-10 17:58N 45°34' W 122°44'0 0.0
2017-Oct-10 17:22N 45°34' W 122°44'0 0.0
2017-Oct-10 16:58N 45°34' W 122°44'0 0.0
2017-Oct-10 16:28N 45°34' W 122°44'0 0.0
2017-Oct-10 15:58N 45°34' W 122°44'0 0.0
2017-Oct-10 15:28N 45°34' W 122°44'0 0.0
2017-Oct-10 14:55N 45°34' W 122°44'0 0.0
2017-Oct-10 13:58N 45°34' W 122°44'0 0.0
2017-Oct-10 13:28N 45°34' W 122°44'0 0.0
2017-Oct-10 12:13N 45°34' W 122°44'0 0.0
2017-Oct-10 11:58N 45°34' W 122°44'0 0.0
2017-Oct-10 11:25N 45°34' W 122°44'0 0.0
2017-Oct-10 10:49N 45°34' W 122°44'0 0.0
2017-Oct-10 10:28N 45°34' W 122°44'0 0.0
2017-Oct-10 09:58N 45°34' W 122°44'0 0.0
2017-Oct-10 09:16N 45°34' W 122°44'0 0.0
2017-Oct-10 08:40N 45°34' W 122°44'0 0.0
2017-Oct-10 08:19N 45°34' W 122°44'0 0.0
2017-Oct-10 07:58N 45°34' W 122°44'0 0.0
2017-Oct-10 07:22N 45°34' W 122°44'0 0.0
2017-Oct-10 06:58N 45°34' W 122°44'0 0.0
2017-Oct-10 06:28N 45°34' W 122°44'0 0.0
2017-Oct-10 05:55N 45°34' W 122°44'0 0.0
2017-Oct-10 05:19N 45°34' W 122°44'0 0.0
2017-Oct-10 05:00N 45°34' W 122°44'1 1.5
2017-Oct-10 04:30N 45°35' W 122°45'2 3.7
2017-Oct-10 03:51N 45°36' W 122°47'2 4.9
2017-Oct-10 03:30N 45°38' W 122°47'4 6.7
2017-Oct-10 02:57N 45°42' W 122°46'4 8.3
2017-Oct-10 02:30N 45°45' W 122°46'4 8.7
2017-Oct-10 02:00N 45°50' W 122°48'8 9.4
2017-Oct-10 01:11N 45°57' W 122°49'210.2
2017-Oct-10 01:00N 45°59' W 122°50'5 9.8
2017-Oct-10 00:30N 46°03' W 122°53'5 9.5
2017-Oct-10 00:00N 46°06' W 122°58'510.0
2017-Oct-09 23:30N 46°09' W 123°04'5 9.6
2017-Oct-09 23:00N 46°11' W 123°10'510.3
2017-Oct-09 22:30N 46°09' W 123°17'5 9.5
2017-Oct-09 22:01N 46°09' W 123°24'4 7.2
2017-Oct-09 21:31N 46°12' W 123°26'3 5.8
2017-Oct-09 21:01N 46°15' W 123°27'4 8.5
2017-Oct-09 20:30N 46°15' W 123°33'5 9.8
2017-Oct-09 20:01N 46°15' W 123°40'510.0
2017-Oct-09 19:31N 46°13' W 123°47'5 9.4
2017-Oct-09 19:00N 46°11' W 123°53'4 8.5
2017-Oct-09 18:31N 46°14' W 123°58'4 8.3
2017-Oct-09 18:01N 46°15' W 124°04'4 7.8
2017-Oct-09 17:30N 46°13' W 124°08'4 8.1
2017-Oct-09 17:01N 46°11' W 124°13'2 4.4
2017-Oct-09 16:30N 46°10' W 124°16'1 2.5
2017-Oct-09 16:00N 46°09' W 124°18'1 2.8
2017-Oct-09 15:31N 46°08' W 124°19'2 3.2
2017-Oct-09 15:00N 46°07' W 124°21'2 3.4
2017-Oct-09 14:30N 46°07' W 124°23'2 3.8
2017-Oct-09 14:01N 46°06' W 124°26'2 4.7
2017-Oct-09 13:31N 46°05' W 124°29'2 4.4
2017-Oct-09 13:01N 46°04' W 124°32'2 4.4
2017-Oct-09 12:30N 46°03' W 124°35'2 4.5
2017-Oct-09 12:01N 46°02' W 124°38'2 4.5
2017-Oct-09 11:30N 46°01' W 124°40'2 4.4
2017-Oct-09 10:59N 46°00' W 124°43'4 5.3
2017-Oct-09 10:13N 45°58' W 124°48'1 5.5
2017-Oct-09 10:01N 45°58' W 124°50'4 8.1
2017-Oct-09 09:30N 45°56' W 124°55'1 2.3
2017-Oct-09 09:00N 45°55' W 124°57'3 5.5
2017-Oct-09 08:31N 45°54' W 125°00'3 5.1
2017-Oct-09 08:00N 45°51' W 125°00'3 5.2
2017-Oct-09 07:30N 45°49' W 125°00'3 5.0
2017-Oct-09 07:00N 45°46' W 125°01'2 5.0
2017-Oct-09 06:30N 45°44' W 125°01'3 4.9
2017-Oct-09 05:58N 45°41' W 125°02'2 4.9
2017-Oct-09 05:30N 45°39' W 125°02'3 5.2
2017-Oct-09 05:00N 45°36' W 125°02'3 5.2
2017-Oct-09 04:23N 45°33' W 125°02'2 5.2
2017-Oct-09 04:00N 45°31' W 125°03'2 5.0
2017-Oct-09 03:31N 45°28' W 125°03'3 5.0
2017-Oct-09 02:59N 45°26' W 125°03'4 5.4
2017-Oct-09 02:19N 45°22' W 125°04'  

Dump ship's entire track history